Terminal Aerodrome Forecast
Issued by NWS

Home | Current Version | Previous Version | Text Only | Print | Product List | Glossary On
Versions: 1 2 3 4 5 6 7 8 9 10 11 12 13 14 15 16 17 18 19 20 21 22 23 24 25 26 27 28 29 30 31 32
000
FTUS43 KGLD 261637 AAB
TAFMCK
TAF AMD
KMCK 261637Z 2617/2712 09010KT P6SM VCTS BKN007CB
     FM261900 11008KT P6SM BKN090
     FM270200 09007KT P6SM VCTS BKN070CB
     FM270900 VRB06KT P6SM TSRA OVC070CB=

USA.gov is the U.S. government's official web portal to all federal, state and local government web resources and services.